Hauptseite
METAR-TAF:

METAR-TAF

Flughäfen :

Dübendorf, Schweiz

Militärflugplatz Dübendorf

Breite: 47-23-55N, Länge: 8-38-53E, Höhe: 448 m

Beobachtung

Neuester Wetterbericht von vor 57 Minuten, um 10:50 UTC
Wind 1 kt aus unterschiedlichen Richtungen
Temperatur 7°C
Luftfeuchtigkeit 81%
Luftdruck 1028 hPa
Sichtweite 10 km oder mehr
Durchbrochene Bewölkung in der Höhe von 3200 ft

METAR: LSMD 231050Z VRB01KT 9999 BKN032 07/04 Q1028 RMK BLU

Zeit: 12:47 (11:47 UTC)


TAF: fehlend

Wetterbeobachtungen und Prognosen von mehr als 4000 Flughäfen (METAR und TAF Bericht).

Die verfügbaren Stationen werden durch gelbe und rote Markierungen auf der Karte dargestellt.

Führen Sie die Maus auf sie, um den Namen der Station zu sehen.

Darauf klicken, um die Beobachtung von Wetterbeobachtungen und Prognosen zu sehen.

Um die Karte zu ändern : klicken Sie auf den grünen Tasten mit einem schwarzen Kreuz Zum Vergrößern, auf den grünen Button mit einem Gedankenstrich zu verkleinern, oder auf die grünen Pfeile für benachbarte Karten.


METAR-TAF: